Time;durP1;ratioP1;P1;durP2;ratioP2;P2;SDS_P1;SDS_P2;PMS_P1;PMS_P2;Temp;Humidity;BMP_temperature;BMP_pressure;BME280_temperature;BME280_humidity;BME280_pressure;Samples;Min_cycle;Max_cycle;Signal;HPM_P1;HPM_P2
2023/09/04 00:00:39;;;;;;;3.10;2.77;;;19.50;99.90;;;;;;5121646;27;20491;-79
2023/09/04 00:03:05;;;;;;;3.03;2.47;;;19.50;99.90;;;;;;5106007;28;20262;-82
2023/09/04 00:05:34;;;;;;;2.90;2.70;;;19.50;99.90;;;;;;5121530;27;20226;-82
2023/09/04 00:08:00;;;;;;;3.37;3.07;;;19.50;99.90;;;;;;5121883;27;20534;-79
2023/09/04 00:10:26;;;;;;;2.83;2.63;;;19.50;99.90;;;;;;5121656;27;20428;-79
2023/09/04 00:12:52;;;;;;;3.33;2.80;;;19.60;99.90;;;;;;5121776;27;20767;-79
2023/09/04 00:15:17;;;;;;;3.80;2.90;;;19.50;99.90;;;;;;5105805;28;20198;-82
2023/09/04 00:17:47;;;;;;;3.13;2.80;;;19.50;99.90;;;;;;5121842;28;20183;-78
2023/09/04 00:20:13;;;;;;;5.70;3.10;;;19.50;99.90;;;;;;5121501;28;20213;-81
2023/09/04 00:22:39;;;;;;;3.40;3.10;;;19.50;99.90;;;;;;5105839;28;20520;-78
2023/09/04 00:25:05;;;;;;;3.47;3.17;;;19.50;99.90;;;;;;5106115;28;21031;-82
2023/09/04 00:27:30;;;;;;;3.67;3.33;;;19.50;99.90;;;;;;5121152;28;20548;-80
2023/09/04 00:29:56;;;;;;;3.63;3.27;;;19.50;99.90;;;;;;5105761;28;20439;-82
2023/09/04 00:32:21;;;;;;;3.60;2.90;;;19.40;99.90;;;;;;5105571;28;20265;-79
2023/09/04 00:34:47;;;;;;;3.00;2.70;;;19.40;99.90;;;;;;5106069;28;20671;-78
2023/09/04 00:37:13;;;;;;;4.37;3.37;;;19.40;99.90;;;;;;5124238;27;20183;-79
2023/09/04 00:39:38;;;;;;;3.87;3.57;;;19.40;99.90;;;;;;5110003;28;20199;-78
2023/09/04 00:42:04;;;;;;;4.70;3.60;;;19.40;99.90;;;;;;5109360;28;20312;-78
2023/09/04 00:44:30;;;;;;;4.50;3.63;;;19.40;99.90;;;;;;5125674;27;20566;-78
2023/09/04 00:46:57;;;;;;;4.27;3.57;;;19.30;99.90;;;;;;5125410;27;20183;-82
2023/09/04 00:49:23;;;;;;;3.70;3.30;;;19.30;99.90;;;;;;5109663;28;20658;-79
2023/09/04 00:51:49;;;;;;;4.77;3.67;;;19.30;99.90;;;;;;5108874;28;20486;-82
2023/09/04 00:54:15;;;;;;;4.30;3.37;;;19.30;99.90;;;;;;5109175;28;20775;-82
2023/09/04 00:56:41;;;;;;;4.17;3.53;;;19.30;99.90;;;;;;5125223;27;20484;-81
2023/09/04 00:59:07;;;;;;;3.90;3.57;;;19.20;99.90;;;;;;5109449;28;20457;-78
2023/09/04 01:01:33;;;;;;;3.83;3.23;;;19.20;99.90;;;;;;5109242;28;20991;-80
2023/09/04 01:04:01;;;;;;;4.17;3.47;;;19.20;99.90;;;;;;5125272;27;20576;-81
2023/09/04 01:06:27;;;;;;;4.37;3.40;;;19.20;99.90;;;;;;5124970;27;20435;-78
2023/09/04 01:08:55;;;;;;;4.00;3.50;;;19.20;99.90;;;;;;5109477;28;20423;-82
2023/09/04 01:11:40;;;;;;;3.40;3.10;;;19.10;99.90;;;;;;5124998;27;20202;-78
2023/09/04 01:14:13;;;;;;;4.50;2.77;;;19.20;99.90;;;;;;5124939;27;21065;-78
2023/09/04 01:16:40;;;;;;;3.50;3.20;;;19.10;99.90;;;;;;5109153;28;20478;-82
2023/09/04 01:19:10;;;;;;;3.77;3.40;;;19.10;99.90;;;;;;5124824;27;20430;-78
2023/09/04 01:21:37;;;;;;;4.00;3.40;;;19.10;99.90;;;;;;5108936;28;20547;-82
2023/09/04 01:24:03;;;;;;;3.70;3.17;;;19.00;99.90;;;;;;5124902;27;20524;-83
2023/09/04 01:26:50;;;;;;;3.50;3.13;;;19.00;99.90;;;;;;5107557;28;20458;-81
2023/09/04 01:29:35;;;;;;;4.20;3.80;;;19.00;99.90;;;;;;5109192;28;20420;-78
2023/09/04 01:32:10;;;;;;;4.43;3.90;;;19.00;99.90;;;;;;5124261;27;20455;-78
2023/09/04 01:34:49;;;;;;;4.20;3.80;;;19.00;99.90;;;;;;5124788;27;20475;-78
2023/09/04 01:37:16;;;;;;;4.03;3.70;;;19.00;99.90;;;;;;5124571;27;20942;-82
2023/09/04 01:39:43;;;;;;;4.30;3.20;;;19.00;99.90;;;;;;5109095;28;20460;-82
2023/09/04 01:42:09;;;;;;;4.33;3.80;;;19.00;99.90;;;;;;5108138;28;20488;-82
2023/09/04 01:44:34;;;;;;;4.63;4.23;;;18.90;99.90;;;;;;5108523;28;20857;-82
2023/09/04 01:47:01;;;;;;;4.40;4.00;;;19.00;99.90;;;;;;5108275;28;20675;-78
2023/09/04 01:49:26;;;;;;;4.27;3.60;;;18.90;99.90;;;;;;5108466;28;20455;-81
2023/09/04 01:51:53;;;;;;;4.73;3.80;;;18.90;99.90;;;;;;5107181;28;20435;-77
2023/09/04 01:54:19;;;;;;;4.20;3.80;;;18.90;99.90;;;;;;5124303;27;20236;-81
2023/09/04 01:56:45;;;;;;;4.50;3.80;;;18.90;99.90;;;;;;5108312;28;20912;-79
2023/09/04 01:59:10;;;;;;;4.30;3.80;;;18.90;99.90;;;;;;5124020;27;20265;-81
2023/09/04 02:01:36;;;;;;;4.90;4.00;;;18.90;99.90;;;;;;5124218;27;20434;-80
2023/09/04 02:04:02;;;;;;;4.53;3.63;;;18.80;99.90;;;;;;5108101;28;20214;-82
2023/09/04 02:06:29;;;;;;;7.23;4.30;;;18.80;99.90;;;;;;5123773;27;20198;-78
2023/09/04 02:08:55;;;;;;;6.40;4.20;;;18.80;99.90;;;;;;5108111;28;20412;-82
2023/09/04 02:11:21;;;;;;;4.57;4.10;;;18.80;99.90;;;;;;5123953;27;20450;-78
2023/09/04 02:13:47;;;;;;;4.43;3.80;;;18.80;99.90;;;;;;5123477;27;20403;-82
2023/09/04 02:16:13;;;;;;;5.00;4.10;;;18.80;99.90;;;;;;5123993;27;20209;-78
2023/09/04 02:18:39;;;;;;;4.50;3.97;;;18.70;99.90;;;;;;5108156;28;20416;-82
2023/09/04 02:21:05;;;;;;;5.10;4.20;;;18.70;99.90;;;;;;5106151;28;20716;-81
2023/09/04 02:23:31;;;;;;;4.30;3.90;;;18.70;99.90;;;;;;5123990;27;20575;-78
2023/09/04 02:25:57;;;;;;;4.13;3.73;;;18.70;99.90;;;;;;5123333;27;20482;-78
2023/09/04 02:28:24;;;;;;;4.57;3.63;;;18.70;99.90;;;;;;5123408;27;20196;-78
2023/09/04 02:30:50;;;;;;;5.77;4.20;;;18.70;99.90;;;;;;5123064;27;20442;-82
2023/09/04 02:33:15;;;;;;;5.60;4.50;;;18.70;99.90;;;;;;5123382;27;20438;-77
2023/09/04 02:35:41;;;;;;;4.73;4.10;;;18.70;99.90;;;;;;5108163;28;20439;-81
2023/09/04 02:38:07;;;;;;;5.73;4.30;;;18.70;99.90;;;;;;5107606;28;20189;-81
2023/09/04 02:40:33;;;;;;;4.53;4.13;;;18.70;99.90;;;;;;5123111;27;20213;-77
2023/09/04 02:42:59;;;;;;;4.73;4.33;;;18.70;99.90;;;;;;5107295;28;20415;-78
2023/09/04 02:45:24;;;;;;;5.53;4.40;;;18.70;99.90;;;;;;5107074;28;20222;-82
2023/09/04 02:47:50;;;;;;;3.93;3.63;;;18.60;99.90;;;;;;5123039;27;20187;-81
2023/09/04 02:50:17;;;;;;;4.40;4.00;;;18.70;99.90;;;;;;5123003;27;20225;-78
2023/09/04 02:52:42;;;;;;;4.50;4.10;;;18.60;99.90;;;;;;5107313;28;20217;-82
2023/09/04 02:55:08;;;;;;;4.40;4.00;;;18.60;99.90;;;;;;5122044;27;20450;-82
2023/09/04 02:57:34;;;;;;;4.63;3.93;;;18.70;99.90;;;;;;5122620;27;20222;-78
2023/09/04 03:00:00;;;;;;;6.27;4.90;;;18.80;99.90;;;;;;5121988;27;21047;-77
2023/09/04 03:02:26;;;;;;;4.97;4.47;;;18.90;99.90;;;;;;5122910;27;20267;-83
2023/09/04 03:04:56;;;;;;;4.90;4.50;;;19.00;99.90;;;;;;5122896;27;20844;-82
2023/09/04 03:07:25;;;;;;;5.20;4.57;;;19.10;99.90;;;;;;5106864;28;20449;-79
2023/09/04 03:09:57;;;;;;;5.47;4.27;;;19.20;99.90;;;;;;5107177;28;20443;-78
2023/09/04 03:12:24;;;;;;;4.67;3.90;;;19.20;99.90;;;;;;5106942;28;20936;-78
2023/09/04 03:15:01;;;;;;;5.33;4.83;;;19.30;99.90;;;;;;5106957;28;20437;-84
2023/09/04 03:17:28;;;;;;;4.67;4.03;;;19.30;99.90;;;;;;5107111;28;20404;-79
2023/09/04 03:19:56;;;;;;;5.10;4.60;;;19.40;99.90;;;;;;5106769;28;20504;-78
2023/09/04 03:22:22;;;;;;;4.43;4.00;;;19.40;99.90;;;;;;5106667;28;20754;-84
2023/09/04 03:24:48;;;;;;;5.80;4.60;;;19.40;99.90;;;;;;5122411;27;20539;-83
2023/09/04 03:27:14;;;;;;;5.20;4.70;;;19.50;99.90;;;;;;5122423;27;20416;-83
2023/09/04 03:29:40;;;;;;;5.17;4.40;;;19.50;99.90;;;;;;5122252;27;20777;-84
2023/09/04 03:32:06;;;;;;;4.70;4.20;;;19.50;99.90;;;;;;5106424;28;20664;-83
2023/09/04 03:34:32;;;;;;;4.53;4.13;;;19.50;99.90;;;;;;5122543;27;20979;-83
2023/09/04 03:36:58;;;;;;;4.63;3.93;;;19.50;99.90;;;;;;5106095;28;20462;-82
2023/09/04 03:39:24;;;;;;;5.23;4.73;;;19.50;99.90;;;;;;5105772;28;20178;-78
2023/09/04 03:41:50;;;;;;;5.70;4.77;;;19.60;99.90;;;;;;5106078;28;20193;-83
2023/09/04 03:44:16;;;;;;;4.87;4.30;;;19.60;99.90;;;;;;5121932;27;20484;-78
2023/09/04 03:46:41;;;;;;;4.30;3.77;;;19.60;99.90;;;;;;5106299;28;20418;-79
2023/09/04 03:49:07;;;;;;;5.10;4.60;;;19.60;99.90;;;;;;5105774;28;20822;-79
2023/09/04 03:51:34;;;;;;;5.07;4.57;;;19.60;99.90;;;;;;5106001;28;20230;-82
2023/09/04 03:54:02;;;;;;;6.20;4.00;;;19.60;99.90;;;;;;5122286;27;20185;-79
2023/09/04 03:56:29;;;;;;;6.17;4.20;;;19.70;99.90;;;;;;5120194;27;20598;-79
2023/09/04 03:58:56;;;;;;;6.63;5.10;;;19.70;99.90;;;;;;5104951;28;20427;-78
2023/09/04 04:01:24;;;;;;;5.10;4.60;;;19.60;99.90;;;;;;5121689;27;20442;-84
2023/09/04 04:03:51;;;;;;;4.93;4.43;;;19.60;99.90;;;;;;5105895;28;20505;-84
2023/09/04 04:06:17;;;;;;;5.93;4.83;;;19.70;99.90;;;;;;5105635;28;20479;-83
2023/09/04 04:08:45;;;;;;;5.20;4.17;;;19.60;99.90;;;;;;5105928;28;20741;-84
2023/09/04 04:11:10;;;;;;;4.93;4.43;;;19.70;99.90;;;;;;5121437;27;20434;-78
2023/09/04 04:13:36;;;;;;;6.10;5.00;;;19.70;99.90;;;;;;5105846;28;20880;-84
2023/09/04 04:16:02;;;;;;;5.43;4.93;;;19.70;99.90;;;;;;5120752;27;20568;-84
2023/09/04 04:18:29;;;;;;;7.07;5.00;;;19.80;99.90;;;;;;5118242;27;20210;-83
2023/09/04 04:20:55;;;;;;;4.77;4.37;;;19.80;99.90;;;;;;5082842;28;20500;-83
2023/09/04 04:23:21;;;;;;;5.07;4.57;;;19.90;99.90;;;;;;5083844;28;20967;-85
2023/09/04 04:25:50;;;;;;;5.37;4.87;;;19.90;99.90;;;;;;5098578;28;20545;-84
2023/09/04 04:28:20;;;;;;;5.80;5.07;;;20.00;99.90;;;;;;5101076;28;20187;-79
2023/09/04 04:30:46;;;;;;;4.93;4.00;;;20.00;99.90;;;;;;5105411;28;20445;-84
2023/09/04 04:33:12;;;;;;;6.30;4.53;;;20.00;99.90;;;;;;5101632;28;21020;-84
2023/09/04 04:35:39;;;;;;;5.10;4.50;;;20.10;99.90;;;;;;5106365;27;20517;-79
2023/09/04 04:38:05;;;;;;;4.80;4.33;;;20.20;99.90;;;;;;5102836;28;20622;-84
2023/09/04 04:40:31;;;;;;;5.83;4.73;;;20.10;99.90;;;;;;5111460;28;20996;-83
2023/09/04 04:42:57;;;;;;;4.13;3.73;;;20.20;99.90;;;;;;5093956;28;20434;-78
2023/09/04 04:50:15;;;;;;;5.30;4.47;;;20.10;99.90;;;;;;5133702;27;20601;-86
2023/09/04 04:52:41;;;;;;;4.33;3.90;;;20.20;99.90;;;;;;5102964;28;20419;-86
2023/09/04 04:55:07;;;;;;;4.20;3.60;;;20.30;99.90;;;;;;5083681;28;20469;-81
2023/09/04 04:57:33;;;;;;;5.50;4.30;;;20.20;99.90;;;;;;5100021;28;20606;-81
2023/09/04 04:59:59;;;;;;;4.30;3.90;;;20.20;99.90;;;;;;5095448;28;20520;-81
2023/09/04 05:02:25;;;;;;;4.50;4.10;;;20.20;99.90;;;;;;5102215;28;21123;-86
2023/09/04 05:04:51;;;;;;;4.20;3.60;;;20.20;99.90;;;;;;5101470;28;20603;-86
2023/09/04 05:07:17;;;;;;;4.80;4.40;;;20.20;99.90;;;;;;5096445;28;20370;-86
2023/09/04 05:09:43;;;;;;;4.93;4.30;;;20.10;99.90;;;;;;5098466;28;20496;-81
2023/09/04 05:12:08;;;;;;;5.83;4.40;;;20.20;99.90;;;;;;5081716;28;20695;-80
2023/09/04 05:14:34;;;;;;;4.50;4.07;;;20.30;99.90;;;;;;5100364;28;20956;-86
2023/09/04 05:17:02;;;;;;;4.10;3.70;;;20.40;99.90;;;;;;5100792;28;20419;-85
2023/09/04 05:19:30;;;;;;;5.00;4.20;;;20.50;99.90;;;;;;5099487;28;20479;-81
2023/09/04 05:21:56;;;;;;;4.60;4.20;;;20.60;99.90;;;;;;5098307;28;20434;-81
2023/09/04 05:24:22;;;;;;;4.70;4.20;;;20.60;99.90;;;;;;5101109;28;20423;-81
2023/09/04 05:26:47;;;;;;;5.07;4.37;;;20.70;99.90;;;;;;5094294;28;20183;-86
2023/09/04 05:29:13;;;;;;;5.67;5.00;;;20.80;99.90;;;;;;5096299;28;20225;-80
2023/09/04 05:31:39;;;;;;;4.77;4.00;;;20.90;99.90;;;;;;5099109;28;20645;-81
2023/09/04 05:34:04;;;;;;;5.50;5.00;;;20.90;99.90;;;;;;5098523;28;20240;-81
2023/09/04 05:36:30;;;;;;;4.50;3.97;;;21.00;99.90;;;;;;5100774;28;20188;-81
2023/09/04 05:38:55;;;;;;;5.27;4.40;;;21.10;99.90;;;;;;5099662;28;20251;-86
2023/09/04 05:41:21;;;;;;;4.40;3.93;;;21.20;99.90;;;;;;5096704;28;20715;-80
2023/09/04 05:43:47;;;;;;;4.13;3.73;;;21.20;99.90;;;;;;5098573;28;20693;-80
2023/09/04 05:46:12;;;;;;;6.67;4.33;;;21.20;99.90;;;;;;5097967;28;20215;-86
2023/09/04 05:48:38;;;;;;;3.80;3.43;;;21.30;99.90;;;;;;5094162;28;20275;-78
2023/09/04 05:51:04;;;;;;;6.27;4.00;;;21.30;99.90;;;;;;5095574;28;20367;-79
2023/09/04 05:53:29;;;;;;;4.37;3.97;;;21.40;99.90;;;;;;5084288;28;20712;-85
2023/09/04 05:56:03;;;;;;;3.83;3.43;;;21.40;99.90;;;;;;5088709;28;20692;-83
2023/09/04 05:58:29;;;;;;;5.07;4.20;;;21.40;99.90;;;;;;5100339;28;20229;-84
2023/09/04 06:00:55;;;;;;;3.93;3.53;;;21.40;99.90;;;;;;5085275;28;21074;-79
2023/09/04 06:03:20;;;;;;;5.23;3.70;;;21.50;99.90;;;;;;5084376;28;20236;-79
2023/09/04 06:05:46;;;;;;;4.20;3.80;;;21.50;99.90;;;;;;5083163;28;20200;-78
2023/09/04 06:08:11;;;;;;;4.80;4.30;;;21.50;99.90;;;;;;5083209;28;20212;-79
2023/09/04 06:10:37;;;;;;;6.43;4.07;;;21.60;99.90;;;;;;5080098;28;20196;-84
2023/09/04 06:13:03;;;;;;;4.40;3.83;;;21.60;99.90;;;;;;5085062;28;20197;-85
2023/09/04 06:15:28;;;;;;;3.80;3.50;;;21.60;99.90;;;;;;5075552;28;20367;-84
2023/09/04 06:17:54;;;;;;;4.00;3.70;;;21.60;99.90;;;;;;5080629;28;20206;-79
2023/09/04 06:20:20;;;;;;;4.43;4.00;;;21.70;99.90;;;;;;5082591;28;20674;-79
2023/09/04 06:22:46;;;;;;;4.93;4.30;;;21.70;99.90;;;;;;5082368;28;20256;-84
2023/09/04 06:25:11;;;;;;;3.93;3.63;;;21.80;99.90;;;;;;5082244;28;20452;-79
2023/09/04 06:27:37;;;;;;;4.00;3.70;;;21.80;99.90;;;;;;5081156;28;20187;-83
2023/09/04 06:30:05;;;;;;;4.30;3.90;;;21.80;99.90;;;;;;5084055;28;20381;-79
2023/09/04 06:32:31;;;;;;;5.07;4.27;;;21.80;99.90;;;;;;5082763;28;20417;-85
2023/09/04 06:34:56;;;;;;;4.57;4.10;;;21.90;99.90;;;;;;5084771;28;20502;-78
2023/09/04 06:37:22;;;;;;;4.37;3.97;;;21.90;99.90;;;;;;5083397;28;20180;-85
2023/09/04 06:39:48;;;;;;;4.43;4.03;;;22.00;99.90;;;;;;5082296;28;20692;-84
2023/09/04 06:42:13;;;;;;;4.63;3.97;;;22.00;99.90;;;;;;5083829;28;20416;-83
2023/09/04 06:44:39;;;;;;;3.97;3.50;;;22.00;99.90;;;;;;5100236;28;20299;-79
2023/09/04 06:47:04;;;;;;;4.67;4.23;;;22.00;99.90;;;;;;5081540;28;20188;-79
2023/09/04 06:49:30;;;;;;;3.80;3.50;;;22.00;99.90;;;;;;5078321;28;20228;-85
2023/09/04 06:51:56;;;;;;;4.67;3.90;;;22.10;99.90;;;;;;5075002;28;20208;-80
2023/09/04 06:54:21;;;;;;;4.47;4.07;;;22.10;99.90;;;;;;5075612;28;20729;-84
2023/09/04 06:56:47;;;;;;;4.30;3.90;;;22.20;99.90;;;;;;5076019;28;20180;-84
2023/09/04 06:59:13;;;;;;;6.97;6.17;;;22.20;99.90;;;;;;5079088;28;20185;-85
2023/09/04 07:01:39;;;;;;;17.90;12.23;;;22.20;99.90;;;;;;5074961;28;20469;-80
2023/09/04 07:04:05;;;;;;;3.50;3.20;;;22.30;99.90;;;;;;5079506;28;20272;-87
2023/09/04 07:06:31;;;;;;;4.07;3.77;;;22.30;99.90;;;;;;5082811;28;20478;-81
2023/09/04 07:08:57;;;;;;;3.83;3.53;;;22.30;99.90;;;;;;5071686;28;20489;-88
2023/09/04 07:11:22;;;;;;;4.17;3.50;;;22.40;99.90;;;;;;5082652;28;20196;-87
2023/09/04 07:13:48;;;;;;;3.90;3.60;;;22.40;99.90;;;;;;5083326;28;20212;-87
2023/09/04 07:16:13;;;;;;;3.83;3.53;;;22.50;99.90;;;;;;5081806;28;20665;-87
2023/09/04 07:18:39;;;;;;;3.60;3.30;;;22.50;99.90;;;;;;5080537;28;20268;-81
2023/09/04 07:21:05;;;;;;;3.80;3.50;;;22.50;99.90;;;;;;5084726;28;20422;-87
2023/09/04 07:23:30;;;;;;;3.83;3.33;;;22.60;99.90;;;;;;5083844;28;20777;-87
2023/09/04 07:25:57;;;;;;;4.13;3.70;;;22.60;99.90;;;;;;5081984;28;20196;-81
2023/09/04 07:28:23;;;;;;;5.33;3.20;;;22.70;99.90;;;;;;5071840;28;20252;-81
2023/09/04 07:30:48;;;;;;;4.43;3.17;;;22.70;99.90;;;;;;5076512;28;20454;-88
2023/09/04 07:33:14;;;;;;;4.40;4.00;;;22.80;99.90;;;;;;5080476;28;20506;-87
2023/09/04 07:35:43;;;;;;;3.80;3.30;;;22.80;99.90;;;;;;5078208;28;20210;-82
2023/09/04 07:38:10;;;;;;;3.50;3.20;;;22.80;99.90;;;;;;5081244;28;20186;-87
2023/09/04 07:40:37;;;;;;;3.90;3.40;;;22.90;99.90;;;;;;5095459;28;20464;-82
2023/09/04 07:43:02;;;;;;;3.20;2.80;;;22.90;99.90;;;;;;5084856;28;20839;-81
2023/09/04 07:45:28;;;;;;;3.83;3.00;;;23.00;99.90;;;;;;5081368;28;20436;-86
2023/09/04 07:47:54;;;;;;;3.47;3.17;;;23.00;99.90;;;;;;5080737;28;20187;-87
2023/09/04 07:50:19;;;;;;;4.20;3.40;;;23.00;99.90;;;;;;5080070;28;20211;-81
2023/09/04 07:52:45;;;;;;;3.87;3.00;;;23.10;99.90;;;;;;5091082;28;20183;-81
2023/09/04 07:55:11;;;;;;;3.27;2.97;;;23.20;99.90;;;;;;5080352;28;20195;-87
2023/09/04 07:57:36;;;;;;;4.03;3.63;;;23.20;99.90;;;;;;5074728;28;20176;-87
2023/09/04 08:00:03;;;;;;;4.40;4.00;;;23.20;99.90;;;;;;5078678;28;20212;-87
2023/09/04 08:02:28;;;;;;;4.10;3.07;;;23.20;99.90;;;;;;5081235;28;20278;-87
2023/09/04 08:04:54;;;;;;;2.70;2.50;;;23.30;99.90;;;;;;5080862;28;20812;-81
2023/09/04 08:07:20;;;;;;;2.80;2.60;;;23.40;99.90;;;;;;5079765;28;20183;-81
2023/09/04 08:09:45;;;;;;;2.70;2.50;;;23.50;99.90;;;;;;5078543;28;20254;-80
2023/09/04 08:12:11;;;;;;;5.13;3.03;;;23.50;99.90;;;;;;5076763;28;20260;-87
2023/09/04 08:14:36;;;;;;;4.23;3.20;;;23.50;99.90;;;;;;5080429;28;20798;-87
2023/09/04 08:17:03;;;;;;;3.60;3.20;;;23.60;99.90;;;;;;5076637;28;20573;-80
2023/09/04 08:19:29;;;;;;;2.90;2.53;;;23.60;99.90;;;;;;5093894;28;20181;-88
2023/09/04 08:21:57;;;;;;;3.00;2.63;;;23.60;99.90;;;;;;5092576;28;20588;-83
2023/09/04 08:24:23;;;;;;;2.83;2.60;;;23.60;99.90;;;;;;5074440;28;20257;-87
2023/09/04 08:26:48;;;;;;;2.57;2.37;;;23.70;99.90;;;;;;5079579;28;20462;-82
2023/09/04 08:29:14;;;;;;;4.10;3.50;;;23.70;99.90;;;;;;5062274;28;20272;-88
2023/09/04 08:31:40;;;;;;;2.47;2.27;;;23.80;99.90;;;;;;5076036;28;20218;-85
2023/09/04 08:34:05;;;;;;;2.67;2.30;;;23.90;99.90;;;;;;5077646;28;20660;-87
2023/09/04 08:36:31;;;;;;;3.07;2.77;;;23.90;99.90;;;;;;5076363;28;20365;-87
2023/09/04 08:38:57;;;;;;;3.00;2.70;;;24.00;99.90;;;;;;5076921;28;20192;-88
2023/09/04 08:41:27;;;;;;;2.50;2.30;;;24.30;99.90;;;;;;5073602;28;20277;-87
2023/09/04 08:43:53;;;;;;;2.87;2.67;;;24.80;99.90;;;;;;5073760;28;20532;-83
2023/09/04 08:46:19;;;;;;;2.67;2.40;;;25.20;99.90;;;;;;5078913;28;21092;-83
2023/09/04 08:48:46;;;;;;;5.13;2.50;;;25.80;99.90;;;;;;5075923;28;20559;-88
2023/09/04 08:51:12;;;;;;;3.03;2.73;;;26.30;99.90;;;;;;5084286;28;20437;-81
2023/09/04 08:53:38;;;;;;;2.40;2.20;;;26.60;99.90;;;;;;5094781;28;20558;-81
2023/09/04 08:56:06;;;;;;;3.20;2.90;;;26.60;99.90;;;;;;5069672;28;20467;-89
2023/09/04 08:58:32;;;;;;;2.40;2.20;;;26.60;99.90;;;;;;5077007;28;20730;-81
2023/09/04 09:00:58;;;;;;;3.13;2.80;;;26.40;99.90;;;;;;5079674;28;20867;-88
2023/09/04 09:03:24;;;;;;;2.83;2.53;;;26.20;99.90;;;;;;5072069;28;20470;-82
2023/09/04 09:05:55;;;;;;;4.23;3.40;;;25.90;99.90;;;;;;5074728;28;20457;-88
2023/09/04 09:08:22;;;;;;;3.40;3.10;;;25.60;99.90;;;;;;5075148;28;20498;-86
2023/09/04 09:10:48;;;;;;;2.63;2.43;;;25.30;99.90;;;;;;5074496;28;20674;-87
2023/09/04 09:13:14;;;;;;;4.23;3.00;;;25.10;99.90;;;;;;5070806;28;20437;-88
2023/09/04 09:15:42;;;;;;;2.97;2.70;;;24.90;99.90;;;;;;5075329;28;20448;-88
2023/09/04 09:18:08;;;;;;;3.90;2.67;;;24.70;99.90;;;;;;5071577;28;20436;-86
2023/09/04 09:20:34;;;;;;;3.57;3.13;;;24.60;99.90;;;;;;5074770;28;20790;-88
2023/09/04 09:23:01;;;;;;;4.80;2.73;;;24.60;99.90;;;;;;5076025;28;20180;-87
2023/09/04 09:25:28;;;;;;;2.93;2.63;;;24.60;99.90;;;;;;5077840;28;20441;-81
2023/09/04 09:28:01;;;;;;;3.70;3.40;;;24.40;99.90;;;;;;5075813;28;20478;-87
2023/09/04 09:30:38;;;;;;;4.60;3.37;;;24.50;99.90;;;;;;5075163;28;20449;-88
2023/09/04 09:33:12;;;;;;;3.40;3.10;;;24.60;99.90;;;;;;5065717;28;20562;-90
2023/09/04 09:35:40;;;;;;;3.17;2.87;;;24.70;99.90;;;;;;5080356;28;20447;-82
2023/09/04 09:38:06;;;;;;;4.83;2.70;;;24.70;99.90;;;;;;5080698;28;20437;-88
2023/09/04 09:40:31;;;;;;;3.83;3.03;;;24.70;99.90;;;;;;5084359;28;21012;-82
2023/09/04 09:43:00;;;;;;;2.80;2.60;;;24.60;99.90;;;;;;5078415;28;20416;-82
2023/09/04 09:45:33;;;;;;;2.77;2.57;;;24.60;99.90;;;;;;5078934;28;20438;-82
2023/09/04 09:48:07;;;;;;;3.10;2.70;;;24.70;99.90;;;;;;5080890;28;20499;-88
2023/09/04 09:50:35;;;;;;;3.07;2.50;;;24.90;99.90;;;;;;5081616;28;21157;-88
2023/09/04 09:53:02;;;;;;;2.93;2.73;;;25.00;99.90;;;;;;5076598;28;20491;-82
2023/09/04 09:55:30;;;;;;;2.60;2.40;;;25.00;99.90;;;;;;5072878;28;20546;-82
2023/09/04 09:57:58;;;;;;;2.97;2.37;;;25.00;99.90;;;;;;5077908;28;20944;-89
2023/09/04 10:00:25;;;;;;;3.10;2.90;;;24.90;99.90;;;;;;5073803;28;20506;-82
2023/09/04 10:02:50;;;;;;;3.20;2.40;;;24.90;99.90;;;;;;5076431;28;20462;-89
2023/09/04 10:05:17;;;;;;;3.00;2.70;;;24.90;99.90;;;;;;5080389;28;20439;-82
2023/09/04 10:07:49;;;;;;;3.03;2.70;;;24.90;99.90;;;;;;5075089;28;20427;-86
2023/09/04 10:10:15;;;;;;;3.00;2.70;;;25.00;99.90;;;;;;5077563;28;20706;-87
2023/09/04 10:12:57;;;;;;;3.53;3.23;;;25.00;99.90;;;;;;5079987;28;20783;-82
2023/09/04 10:15:25;;;;;;;2.20;2.03;;;24.90;99.90;;;;;;5081385;28;20468;-82
2023/09/04 10:18:01;;;;;;;30.97;17.70;;;24.90;99.90;;;;;;5080006;28;20441;-88
2023/09/04 10:20:27;;;;;;;14.97;8.90;;;24.90;99.90;;;;;;5080333;28;20459;-81
2023/09/04 10:23:10;;;;;;;3.40;3.17;;;25.00;99.90;;;;;;5079607;28;20416;-83
2023/09/04 10:25:46;;;;;;;2.50;2.30;;;24.90;99.90;;;;;;5075181;28;20453;-86
2023/09/04 10:28:21;;;;;;;2.63;2.43;;;24.90;99.90;;;;;;5074664;28;20666;-80
2023/09/04 10:30:52;;;;;;;2.10;2.00;;;24.90;99.90;;;;;;5078514;28;20449;-85
2023/09/04 10:33:19;;;;;;;2.47;2.27;;;25.00;99.90;;;;;;5074574;28;20711;-85
2023/09/04 10:35:44;;;;;;;4.83;2.40;;;25.00;99.90;;;;;;5076077;28;20609;-85
2023/09/04 10:38:10;;;;;;;3.80;2.80;;;25.00;99.90;;;;;;5076369;28;20436;-80
2023/09/04 10:40:38;;;;;;;3.10;2.80;;;25.10;99.90;;;;;;5082469;28;20298;-81
2023/09/04 10:43:04;;;;;;;2.70;2.50;;;25.20;99.90;;;;;;5078218;28;20444;-86
2023/09/04 10:45:31;;;;;;;5.40;2.63;;;25.30;99.90;;;;;;5081157;28;20456;-80
2023/09/04 10:47:57;;;;;;;3.23;2.57;;;25.30;99.90;;;;;;5079132;28;20176;-81
2023/09/04 10:50:27;;;;;;;2.60;2.40;;;25.40;99.90;;;;;;5072016;28;20467;-84
2023/09/04 10:52:53;;;;;;;2.87;2.63;;;25.40;99.90;;;;;;5075596;28;20630;-85
2023/09/04 10:55:19;;;;;;;3.17;2.80;;;25.30;99.90;;;;;;5075678;28;21063;-81
2023/09/04 10:57:59;;;;;;;2.50;2.30;;;25.50;99.90;;;;;;5071084;28;20491;-86
2023/09/04 11:00:29;;;;;;;1.97;1.87;;;25.50;99.90;;;;;;5070573;28;20193;-86
2023/09/04 11:02:55;;;;;;;2.60;2.40;;;25.60;99.90;;;;;;5071566;28;20497;-81
2023/09/04 11:05:25;;;;;;;2.50;2.30;;;25.70;99.90;;;;;;5074331;28;20918;-85
2023/09/04 11:07:51;;;;;;;2.60;2.40;;;25.70;99.90;;;;;;5070917;28;20738;-86
2023/09/04 11:10:17;;;;;;;2.40;2.30;;;25.70;99.90;;;;;;5071487;28;20468;-86
2023/09/04 11:12:44;;;;;;;2.57;2.37;;;25.60;99.90;;;;;;5069342;28;20181;-85
2023/09/04 11:15:11;;;;;;;4.43;2.70;;;25.50;99.90;;;;;;5069992;28;20441;-81
2023/09/04 11:17:40;;;;;;;2.93;2.47;;;25.30;99.90;;;;;;5065574;28;20496;-80
2023/09/04 11:20:06;;;;;;;3.43;2.67;;;25.40;99.90;;;;;;5063263;28;20579;-86
2023/09/04 11:22:33;;;;;;;2.87;2.30;;;25.30;99.90;;;;;;5067890;28;20450;-86
2023/09/04 11:24:59;;;;;;;2.93;2.73;;;25.30;99.90;;;;;;5070234;28;20456;-81
2023/09/04 11:27:25;;;;;;;2.60;2.40;;;25.40;99.90;;;;;;5075126;28;20469;-85
2023/09/04 11:29:52;;;;;;;3.03;2.33;;;25.30;99.90;;;;;;5074451;28;20480;-81
2023/09/04 11:32:18;;;;;;;3.53;2.10;;;25.40;99.90;;;;;;5071922;28;20451;-81
2023/09/04 11:34:49;;;;;;;2.63;2.43;;;25.40;99.90;;;;;;5069880;28;20850;-81
2023/09/04 11:37:16;;;;;;;3.43;2.17;;;25.30;99.90;;;;;;5072990;28;20832;-86
2023/09/04 11:39:59;;;;;;;3.03;2.40;;;25.40;99.90;;;;;;5075374;28;20606;-81
2023/09/04 11:42:27;;;;;;;2.33;2.13;;;25.40;99.90;;;;;;5078337;28;20889;-86
2023/09/04 11:44:53;;;;;;;2.73;2.23;;;25.50;99.90;;;;;;5079430;28;20494;-85
2023/09/04 11:47:21;;;;;;;2.70;1.97;;;25.50;99.90;;;;;;5070069;28;20709;-80
2023/09/04 11:49:47;;;;;;;2.53;2.30;;;25.50;99.90;;;;;;5073105;28;20675;-80
2023/09/04 11:52:14;;;;;;;2.30;2.10;;;25.60;99.90;;;;;;5077611;28;20440;-81
2023/09/04 11:54:40;;;;;;;2.53;2.33;;;25.60;99.90;;;;;;5073770;28;20471;-81
2023/09/04 11:57:07;;;;;;;2.37;2.17;;;25.60;99.90;;;;;;5075567;28;20488;-86
2023/09/04 11:59:36;;;;;;;2.27;2.07;;;25.60;99.90;;;;;;5070511;28;20458;-85
2023/09/04 12:02:04;;;;;;;2.60;2.40;;;25.50;99.90;;;;;;5071274;28;20428;-81
2023/09/04 12:04:34;;;;;;;2.23;1.97;;;25.40;99.90;;;;;;5077348;28;21045;-85
2023/09/04 12:07:03;;;;;;;2.97;2.57;;;25.40;99.90;;;;;;5076444;28;20727;-86
2023/09/04 12:09:30;;;;;;;2.77;2.47;;;25.50;99.90;;;;;;5078812;28;20468;-86
2023/09/04 12:11:56;;;;;;;2.43;2.07;;;25.50;99.90;;;;;;5076634;28;20421;-81
2023/09/04 12:14:22;;;;;;;2.27;2.07;;;25.40;99.90;;;;;;5068421;28;20444;-80
2023/09/04 12:16:48;;;;;;;2.27;2.07;;;25.40;99.90;;;;;;5069241;28;20425;-81
2023/09/04 12:19:17;;;;;;;5.30;2.50;;;25.40;99.90;;;;;;5078879;28;20553;-87
2023/09/04 12:21:43;;;;;;;3.80;2.20;;;25.30;99.90;;;;;;5079155;28;20698;-86
2023/09/04 12:24:17;;;;;;;2.53;2.33;;;25.30;99.90;;;;;;5077385;28;20439;-81
2023/09/04 12:26:43;;;;;;;2.90;2.70;;;25.40;99.90;;;;;;5074031;28;20454;-80
2023/09/04 12:29:09;;;;;;;2.50;2.30;;;25.40;99.90;;;;;;5074949;28;20549;-80
2023/09/04 12:31:36;;;;;;;2.20;2.00;;;25.40;99.90;;;;;;5078258;28;20512;-80
2023/09/04 12:34:02;;;;;;;1.87;1.50;;;25.30;99.90;;;;;;5076396;28;20431;-80
2023/09/04 12:36:31;;;;;;;2.00;1.90;;;25.50;99.90;;;;;;5069402;28;20515;-85
2023/09/04 12:38:57;;;;;;;2.10;1.90;;;25.60;99.90;;;;;;5078968;28;20425;-85
2023/09/04 12:41:23;;;;;;;2.20;2.10;;;25.60;99.90;;;;;;5073894;28;20920;-81
2023/09/04 12:43:49;;;;;;;2.30;2.10;;;25.50;99.90;;;;;;5074662;28;20181;-80
2023/09/04 12:46:14;;;;;;;3.60;2.67;;;25.50;99.90;;;;;;5076902;28;20502;-86
2023/09/04 12:48:43;;;;;;;2.00;1.73;;;25.60;99.90;;;;;;5079941;28;20240;-80